<?xml version="1.0" encoding="UTF-8"?>
<gpx version="1.1" creator="Endomondo.com" xsi:schemaLocation="http://www.topografix.com/GPX/1/1 http://www.topografix.com/GPX/1/1/gpx.xsd http://www.garmin.com/xmlschemas/GpxExtensions/v3 http://www.garmin.com/xmlschemas/GpxExtensionsv3.xsd http://www.garmin.com/xmlschemas/TrackPointExtension/v1 http://www.garmin.com/xmlschemas/TrackPointExtensionv1.xsd" xmlns="http://www.topografix.com/GPX/1/1" xmlns:gpxtpx="http://www.garmin.com/xmlschemas/TrackPointExtension/v1" xmlns:gpxx="http://www.garmin.com/xmlschemas/GpxExtensions/v3" xmlns:xsi="http://www.w3.org/2001/XMLSchema-instance">
  <metadata>
    <author>
      <name>jose manuel</name>
      <email id="jmanuelguerrero" domain="gmail.com"/>
    </author>
    <link href="http://www.endomondo.com">
      <text>Endomondo</text>
    </link>
    <time>2016-08-24T09:40:49Z</time>
  </metadata>
  <trk>
    <src>http://www.endomondo.com/</src>
    <link href="https://www.endomondo.com/workouts/663208250/159315">
      <text>endomondo</text>
    </link>
    <type>OTHER</type>
    <trkseg>
      <trkpt lat="42.8277802" lon="-5.2895332">
        <time>2016-01-27T17:06:29Z</time>
      </trkpt>
      <trkpt lat="42.8277802" lon="-5.2895332">
        <ele>1109.3</ele>
        <time>2016-01-27T17:06:33Z</time>
      </trkpt>
      <trkpt lat="42.8278277" lon="-5.2895564">
        <ele>1110.4</ele>
        <time>2016-01-27T17:06:37Z</time>
      </trkpt>
      <trkpt lat="42.8277828" lon="-5.2895793">
        <ele>1110.1</ele>
        <time>2016-01-27T17:08:52Z</time>
      </trkpt>
      <trkpt lat="42.8277428" lon="-5.2896076">
        <ele>1110.1</ele>
        <time>2016-01-27T17:08:56Z</time>
      </trkpt>
      <trkpt lat="42.8277016" lon="-5.2896396">
        <ele>1108.0</ele>
        <time>2016-01-27T17:09:54Z</time>
      </trkpt>
      <trkpt lat="42.8276184" lon="-5.2897494">
        <ele>1108.0</ele>
        <time>2016-01-27T17:09:59Z</time>
      </trkpt>
      <trkpt lat="42.827534" lon="-5.289895">
        <ele>1108.0</ele>
        <time>2016-01-27T17:10:02Z</time>
      </trkpt>
      <trkpt lat="42.8274045" lon="-5.2900767">
        <ele>1107.9</ele>
        <time>2016-01-27T17:10:05Z</time>
      </trkpt>
      <trkpt lat="42.8273143" lon="-5.2902185">
        <ele>1107.9</ele>
        <time>2016-01-27T17:10:07Z</time>
      </trkpt>
      <trkpt lat="42.8272031" lon="-5.290449">
        <ele>1107.9</ele>
        <time>2016-01-27T17:10:10Z</time>
      </trkpt>
      <trkpt lat="42.827176" lon="-5.2906758">
        <ele>1107.9</ele>
        <time>2016-01-27T17:10:12Z</time>
      </trkpt>
      <trkpt lat="42.8271737" lon="-5.2909031">
        <ele>1107.8</ele>
        <time>2016-01-27T17:10:14Z</time>
      </trkpt>
      <trkpt lat="42.8271693" lon="-5.2911163">
        <ele>1107.8</ele>
        <time>2016-01-27T17:10:16Z</time>
      </trkpt>
      <trkpt lat="42.8272031" lon="-5.2913391">
        <ele>1107.7</ele>
        <time>2016-01-27T17:10:18Z</time>
      </trkpt>
      <trkpt lat="42.8272316" lon="-5.2915495">
        <ele>1107.7</ele>
        <time>2016-01-27T17:10:20Z</time>
      </trkpt>
      <trkpt lat="42.827258" lon="-5.2917722">
        <ele>1107.7</ele>
        <time>2016-01-27T17:10:22Z</time>
      </trkpt>
      <trkpt lat="42.8273061" lon="-5.291991">
        <ele>1107.3</ele>
        <time>2016-01-27T17:10:24Z</time>
      </trkpt>
      <trkpt lat="42.8273516" lon="-5.2922059">
        <ele>1106.8</ele>
        <time>2016-01-27T17:10:26Z</time>
      </trkpt>
      <trkpt lat="42.8273934" lon="-5.292427">
        <ele>1106.4</ele>
        <time>2016-01-27T17:10:28Z</time>
      </trkpt>
      <trkpt lat="42.8274534" lon="-5.2926374">
        <ele>1106.1</ele>
        <time>2016-01-27T17:10:30Z</time>
      </trkpt>
      <trkpt lat="42.8275115" lon="-5.2928377">
        <ele>1106.0</ele>
        <time>2016-01-27T17:10:32Z</time>
      </trkpt>
      <trkpt lat="42.8275529" lon="-5.2930562">
        <ele>1105.7</ele>
        <time>2016-01-27T17:10:34Z</time>
      </trkpt>
      <trkpt lat="42.8275703" lon="-5.2932979">
        <ele>1105.4</ele>
        <time>2016-01-27T17:10:36Z</time>
      </trkpt>
      <trkpt lat="42.8275936" lon="-5.2935053">
        <ele>1104.9</ele>
        <time>2016-01-27T17:10:38Z</time>
      </trkpt>
      <trkpt lat="42.8276034" lon="-5.2937311">
        <ele>1102.5</ele>
        <time>2016-01-27T17:10:40Z</time>
      </trkpt>
      <trkpt lat="42.8276091" lon="-5.2939904">
        <ele>1099.2</ele>
        <time>2016-01-27T17:10:42Z</time>
      </trkpt>
      <trkpt lat="42.8276194" lon="-5.2942118">
        <ele>1096.4</ele>
        <time>2016-01-27T17:10:44Z</time>
      </trkpt>
      <trkpt lat="42.827633" lon="-5.294428">
        <ele>1094.0</ele>
        <time>2016-01-27T17:10:46Z</time>
      </trkpt>
      <trkpt lat="42.8276617" lon="-5.2946891">
        <ele>1091.3</ele>
        <time>2016-01-27T17:10:48Z</time>
      </trkpt>
      <trkpt lat="42.8276853" lon="-5.2949343">
        <ele>1088.8</ele>
        <time>2016-01-27T17:10:50Z</time>
      </trkpt>
      <trkpt lat="42.8277195" lon="-5.2951393">
        <ele>1086.0</ele>
        <time>2016-01-27T17:10:52Z</time>
      </trkpt>
      <trkpt lat="42.8277609" lon="-5.2953655">
        <ele>1083.1</ele>
        <time>2016-01-27T17:10:54Z</time>
      </trkpt>
      <trkpt lat="42.8277937" lon="-5.2955995">
        <ele>1075.6</ele>
        <time>2016-01-27T17:10:56Z</time>
      </trkpt>
      <trkpt lat="42.8278484" lon="-5.2958254">
        <ele>1072.6</ele>
        <time>2016-01-27T17:10:58Z</time>
      </trkpt>
      <trkpt lat="42.8278944" lon="-5.2960474">
        <ele>1069.7</ele>
        <time>2016-01-27T17:11:00Z</time>
      </trkpt>
      <trkpt lat="42.8279288" lon="-5.2962637">
        <ele>1068.2</ele>
        <time>2016-01-27T17:11:02Z</time>
      </trkpt>
      <trkpt lat="42.8279534" lon="-5.2964882">
        <ele>1066.3</ele>
        <time>2016-01-27T17:11:04Z</time>
      </trkpt>
      <trkpt lat="42.8279791" lon="-5.2967005">
        <ele>1063.8</ele>
        <time>2016-01-27T17:11:06Z</time>
      </trkpt>
      <trkpt lat="42.8280127" lon="-5.2969139">
        <ele>1061.3</ele>
        <time>2016-01-27T17:11:08Z</time>
      </trkpt>
      <trkpt lat="42.8280464" lon="-5.2971311">
        <ele>1059.2</ele>
        <time>2016-01-27T17:11:10Z</time>
      </trkpt>
      <trkpt lat="42.8280858" lon="-5.2973361">
        <ele>1055.2</ele>
        <time>2016-01-27T17:11:12Z</time>
      </trkpt>
      <trkpt lat="42.8281278" lon="-5.2975475">
        <ele>1052.6</ele>
        <time>2016-01-27T17:11:14Z</time>
      </trkpt>
      <trkpt lat="42.8281591" lon="-5.2977713">
        <ele>1051.4</ele>
        <time>2016-01-27T17:11:16Z</time>
      </trkpt>
      <trkpt lat="42.8281911" lon="-5.2979726">
        <ele>1048.8</ele>
        <time>2016-01-27T17:11:18Z</time>
      </trkpt>
      <trkpt lat="42.8281983" lon="-5.2981993">
        <ele>1045.4</ele>
        <time>2016-01-27T17:11:20Z</time>
      </trkpt>
      <trkpt lat="42.8282008" lon="-5.2984255">
        <ele>1043.7</ele>
        <time>2016-01-27T17:11:22Z</time>
      </trkpt>
      <trkpt lat="42.8281905" lon="-5.2986509">
        <ele>1041.4</ele>
        <time>2016-01-27T17:11:24Z</time>
      </trkpt>
      <trkpt lat="42.8281861" lon="-5.298865">
        <ele>1038.2</ele>
        <time>2016-01-27T17:11:26Z</time>
      </trkpt>
      <trkpt lat="42.828186" lon="-5.2990829">
        <ele>1035.7</ele>
        <time>2016-01-27T17:11:28Z</time>
      </trkpt>
      <trkpt lat="42.8281933" lon="-5.2992995">
        <ele>1033.5</ele>
        <time>2016-01-27T17:11:30Z</time>
      </trkpt>
      <trkpt lat="42.8281864" lon="-5.2995037">
        <ele>1031.5</ele>
        <time>2016-01-27T17:11:32Z</time>
      </trkpt>
      <trkpt lat="42.8281823" lon="-5.2997347">
        <ele>1029.2</ele>
        <time>2016-01-27T17:11:34Z</time>
      </trkpt>
      <trkpt lat="42.82818" lon="-5.2999437">
        <ele>1027.1</ele>
        <time>2016-01-27T17:11:36Z</time>
      </trkpt>
      <trkpt lat="42.8281556" lon="-5.3001489">
        <ele>1024.6</ele>
        <time>2016-01-27T17:11:38Z</time>
      </trkpt>
      <trkpt lat="42.8281126" lon="-5.3003612">
        <ele>1020.0</ele>
        <time>2016-01-27T17:11:42Z</time>
      </trkpt>
      <trkpt lat="42.8280686" lon="-5.3004878">
        <ele>989.3</ele>
        <time>2016-01-27T17:11:48Z</time>
      </trkpt>
      <trkpt lat="42.8280384" lon="-5.3004373">
        <ele>988.4</ele>
        <time>2016-01-27T17:12:13Z</time>
      </trkpt>
      <trkpt lat="42.8280017" lon="-5.300491">
        <ele>988.0</ele>
        <time>2016-01-27T17:12:24Z</time>
      </trkpt>
      <trkpt lat="42.8279907" lon="-5.30059">
        <ele>987.0</ele>
        <time>2016-01-27T17:12:30Z</time>
      </trkpt>
      <trkpt lat="42.8279773" lon="-5.3006505">
        <ele>985.9</ele>
        <time>2016-01-27T17:12:34Z</time>
      </trkpt>
      <trkpt lat="42.8279536" lon="-5.3007345">
        <ele>985.8</ele>
        <time>2016-01-27T17:12:39Z</time>
      </trkpt>
      <trkpt lat="42.827937" lon="-5.3008047">
        <ele>985.8</ele>
        <time>2016-01-27T17:12:44Z</time>
      </trkpt>
      <trkpt lat="42.8279309" lon="-5.3008785">
        <ele>985.3</ele>
        <time>2016-01-27T17:12:49Z</time>
      </trkpt>
      <trkpt lat="42.8278826" lon="-5.3010607">
        <ele>985.1</ele>
        <time>2016-01-27T17:13:02Z</time>
      </trkpt>
      <trkpt lat="42.8278587" lon="-5.3011838">
        <ele>985.0</ele>
        <time>2016-01-27T17:13:10Z</time>
      </trkpt>
      <trkpt lat="42.8278032" lon="-5.3013513">
        <ele>983.8</ele>
        <time>2016-01-27T17:13:25Z</time>
      </trkpt>
      <trkpt lat="42.8278005" lon="-5.3014154">
        <ele>983.5</ele>
        <time>2016-01-27T17:13:29Z</time>
      </trkpt>
      <trkpt lat="42.8278295" lon="-5.3015199">
        <ele>983.2</ele>
        <time>2016-01-27T17:13:36Z</time>
      </trkpt>
      <trkpt lat="42.8278499" lon="-5.3016428">
        <ele>983.0</ele>
        <time>2016-01-27T17:13:44Z</time>
      </trkpt>
      <trkpt lat="42.8278351" lon="-5.3017121">
        <ele>981.3</ele>
        <time>2016-01-27T17:14:29Z</time>
      </trkpt>
      <trkpt lat="42.827821" lon="-5.3017485">
        <ele>981.8</ele>
        <time>2016-01-27T17:14:43Z</time>
      </trkpt>
      <trkpt lat="42.827821" lon="-5.3017485">
        <time>2016-01-27T17:14:43Z</time>
      </trkpt>
    </trkseg>
    <trkseg>
      <trkpt lat="42.827821" lon="-5.3017485">
        <time>2016-01-27T17:14:44Z</time>
      </trkpt>
    </trkseg>
  </trk>
</gpx>